Van Wert, OH

11:54 PM EST on March 05, 2015 (GMT -0500)
APRSWXNET Van Wert OH US | Change Station
CLOSE
Current Station
Personal Weather Station
Location: Van Wert, OH
Elevation: 866 ft
Nearby Weather Stations

Elev 866 ft 40.87 °N, 84.57 °W | Updated 22 minutes ago

Clear
Clear
11 °F
Feels Like 11 °F
N
0
Wind Variable Wind from North
Gusts 4.0 mph

Today
High -- | Low -- °F
--% Chance of Precip.
Yesterday
High -- | Low -- °F
Precip. -- in
7:06 AM 6:33 PM
Full, 100% visible
Pressure 30.58 in
Visibility 10.0 miles
Clouds Clear
Windchill 11 °F
Dew Point 4 °F
Humidity 74%
Rainfall in
Snow Depth Not available.
UV 0 out of 12
Pollen .40 out of 12
Air Quality Not available.
Flu Activity Not available.
METAR KAOH 060353Z AUTO 21003KT 10SM CLR M12/M16 A3051 RMK AO2 SLP353 T11221161

More Conditions Fewer Conditions

Pressure 30.58 in
Visibility 10.0 miles
Clouds Clear
Windchill 11 °F
Dew Point 4 °F
Humidity 74%
Rainfall in
Snow Depth Not available.
UV 0 out of 12
Pollen .40 out of 12
Air Quality Not available.
Flu Activity Not available.
METAR KAOH 060353Z AUTO 21003KT 10SM CLR M12/M16 A3051 RMK AO2 SLP353 T11221161

More Conditions Fewer Conditions

10-Day Weather Forecast

Almanac

Astronomy

Mar. 05, 2015 Rise Set
Actual Time
Civil Twilight
Nautical Twilight
Astronomical Twilight
Moon
Length of Visible Light
Length of Day
Tomorrow will be .
, % of the Moon is Illuminated

Today's Extremes

State Highs State Lows

Community

WunderPhotos

Upload Photos

1,803,178 photos uploaded!

WunderBlogs® & News

Nearby

Air Quality

  Air Quality AQ Index Pollutant
Not available.

Snow Depth

Station Depth Elevation

Earthquake Activity

City Distance Mag. Time & Date
Minimum magnitude displayed is 2.5.

Coastal Water Temperatures

Place Temperature

Nearby Weather Stations